Time;durP1;ratioP1;P1;durP2;ratioP2;P2;SDS_P1;SDS_P2;PMS_P1;PMS_P2;Temp;Humidity;BMP_temperature;BMP_pressure;BME280_temperature;BME280_humidity;BME280_pressure;Samples;Min_cycle;Max_cycle;Signal;HPM_P1;HPM_P2
2022/04/24 00:00:11;;;;;;;11.50;9.65;;;10.10;99.90;;;;;;5107713;27;20517;-77
2022/04/24 00:02:37;;;;;;;10.98;9.85;;;10.00;99.90;;;;;;5125860;27;20594;-77
2022/04/24 00:05:06;;;;;;;10.43;9.38;;;10.00;99.90;;;;;;5108155;27;20164;-76
2022/04/24 00:07:35;;;;;;;10.18;9.18;;;9.90;99.90;;;;;;5089220;27;20497;-77
2022/04/24 00:10:01;;;;;;;10.45;9.45;;;9.90;99.90;;;;;;5124416;27;20062;-76
2022/04/24 00:12:26;;;;;;;13.77;9.85;;;9.90;99.90;;;;;;5105108;27;20051;-76
2022/04/24 00:14:52;;;;;;;11.23;9.82;;;9.90;99.90;;;;;;5122478;27;20043;-76
2022/04/24 00:17:20;;;;;;;10.55;9.45;;;9.80;99.90;;;;;;5120751;27;20039;-77
2022/04/24 00:19:48;;;;;;;10.57;9.27;;;9.70;99.90;;;;;;5080508;27;20119;-75
2022/04/24 00:22:14;;;;;;;11.00;9.80;;;9.70;99.90;;;;;;5075096;27;20055;-76
2022/04/24 00:24:39;;;;;;;10.82;9.60;;;9.70;99.90;;;;;;5090490;27;20055;-74
2022/04/24 00:27:07;;;;;;;10.70;9.60;;;9.70;99.90;;;;;;5110355;27;20073;-76
2022/04/24 00:29:37;;;;;;;11.05;9.88;;;9.70;99.90;;;;;;5093133;27;20042;-76
2022/04/24 00:32:06;;;;;;;11.77;9.10;;;9.70;99.90;;;;;;5108698;27;20464;-74
2022/04/24 00:34:33;;;;;;;11.38;9.60;;;9.60;99.90;;;;;;5128440;27;20038;-75
2022/04/24 00:36:59;;;;;;;11.13;9.18;;;9.60;99.90;;;;;;5125817;27;20145;-77
2022/04/24 00:39:24;;;;;;;10.75;9.75;;;9.60;99.90;;;;;;5128139;27;20042;-77
2022/04/24 00:41:52;;;;;;;11.45;9.80;;;9.50;99.90;;;;;;5106940;27;20047;-77
2022/04/24 00:44:19;;;;;;;11.20;9.63;;;9.50;99.90;;;;;;5128128;27;20828;-76
2022/04/24 00:46:53;;;;;;;11.43;10.23;;;9.40;99.90;;;;;;5127823;27;20046;-77
2022/04/24 00:49:23;;;;;;;11.23;9.48;;;9.40;99.90;;;;;;5127179;27;20043;-75
2022/04/24 00:51:48;;;;;;;11.27;10.18;;;9.40;99.90;;;;;;5127041;27;20567;-77
2022/04/24 00:54:15;;;;;;;10.60;9.25;;;9.40;99.90;;;;;;5125976;27;20137;-79
2022/04/24 00:56:42;;;;;;;11.13;9.50;;;9.30;99.90;;;;;;5109413;27;20129;-76
2022/04/24 00:59:10;;;;;;;10.13;9.13;;;9.30;99.90;;;;;;5124975;27;20231;-78
2022/04/24 01:01:36;;;;;;;11.43;10.25;;;9.30;99.90;;;;;;5127010;27;20045;-78
2022/04/24 01:04:04;;;;;;;10.77;9.63;;;9.20;99.90;;;;;;5110156;27;20103;-77
2022/04/24 01:06:34;;;;;;;10.88;9.57;;;9.20;99.90;;;;;;5110248;27;20058;-78
2022/04/24 01:09:10;;;;;;;11.85;9.65;;;9.10;99.90;;;;;;5124864;27;20484;-77
2022/04/24 01:11:36;;;;;;;10.75;9.55;;;9.10;99.90;;;;;;5126637;27;20113;-78
2022/04/24 01:14:05;;;;;;;12.23;9.38;;;9.10;99.90;;;;;;5110131;27;20067;-78
2022/04/24 01:16:31;;;;;;;12.05;9.63;;;9.10;99.90;;;;;;5127040;27;20046;-78
2022/04/24 01:18:58;;;;;;;10.10;9.10;;;9.00;99.90;;;;;;5126875;27;20643;-78
2022/04/24 01:21:23;;;;;;;10.38;9.35;;;9.00;99.90;;;;;;5142576;27;20046;-78
2022/04/24 01:23:50;;;;;;;10.88;9.57;;;8.90;99.90;;;;;;5124025;27;20618;-78
2022/04/24 01:26:18;;;;;;;12.18;9.85;;;8.90;99.90;;;;;;5089525;27;20102;-78
2022/04/24 01:28:44;;;;;;;10.57;9.55;;;8.80;99.90;;;;;;5125869;27;20073;-78
2022/04/24 01:31:10;;;;;;;10.63;9.63;;;8.80;99.90;;;;;;5126833;27;20050;-78
2022/04/24 01:33:36;;;;;;;10.75;9.60;;;8.80;99.90;;;;;;5108219;27;20042;-78
2022/04/24 01:36:03;;;;;;;11.55;10.35;;;8.80;99.90;;;;;;5108445;27;20047;-78
2022/04/24 01:38:29;;;;;;;11.00;9.77;;;8.70;99.90;;;;;;5138952;27;20043;-77
2022/04/24 01:40:55;;;;;;;11.05;9.95;;;8.70;99.90;;;;;;5092613;27;20039;-78
2022/04/24 01:43:21;;;;;;;11.38;10.23;;;8.70;99.90;;;;;;5127124;27;20054;-78
2022/04/24 01:45:47;;;;;;;11.38;9.95;;;8.70;99.90;;;;;;5106195;27;20158;-78
2022/04/24 01:48:12;;;;;;;10.75;9.65;;;8.60;99.90;;;;;;5109069;27;20129;-78
2022/04/24 01:50:38;;;;;;;11.20;9.85;;;8.60;99.90;;;;;;5110051;27;20057;-77
2022/04/24 01:53:04;;;;;;;12.27;10.98;;;8.60;99.90;;;;;;5107302;27;20045;-77
2022/04/24 01:55:30;;;;;;;11.05;9.63;;;8.50;99.90;;;;;;5127110;27;20046;-81
2022/04/24 01:57:56;;;;;;;10.55;9.45;;;8.40;99.90;;;;;;5089698;27;20236;-81
2022/04/24 02:00:22;;;;;;;11.63;10.38;;;8.40;99.90;;;;;;5094062;27;20043;-77
2022/04/24 02:02:48;;;;;;;11.40;10.20;;;8.40;99.90;;;;;;5129839;27;20043;-77
2022/04/24 02:05:14;;;;;;;11.45;10.25;;;8.30;99.90;;;;;;5119096;27;20516;-75
2022/04/24 02:07:40;;;;;;;12.88;10.57;;;8.30;99.90;;;;;;5112126;27;20045;-78
2022/04/24 02:10:07;;;;;;;11.38;10.20;;;8.30;99.90;;;;;;5132552;27;20043;-77
2022/04/24 02:12:33;;;;;;;11.30;10.13;;;8.20;99.90;;;;;;5114340;27;20061;-78
2022/04/24 02:14:58;;;;;;;11.90;10.65;;;8.20;99.90;;;;;;5115180;27;20045;-78
2022/04/24 02:17:24;;;;;;;12.13;10.63;;;8.20;99.90;;;;;;5115130;27;20046;-77
2022/04/24 02:19:50;;;;;;;12.07;10.77;;;8.10;99.90;;;;;;5114342;27;20089;-79
2022/04/24 02:22:16;;;;;;;11.90;10.70;;;8.10;99.90;;;;;;5114134;27;20382;-78
2022/04/24 02:24:41;;;;;;;11.27;10.18;;;8.00;99.90;;;;;;5080836;27;20093;-77
2022/04/24 02:27:07;;;;;;;12.32;11.00;;;8.00;99.90;;;;;;5097375;27;20049;-78
2022/04/24 02:29:33;;;;;;;11.98;10.57;;;8.00;99.90;;;;;;5097689;27;20111;-79
2022/04/24 02:31:59;;;;;;;11.88;10.77;;;7.90;99.90;;;;;;5097825;27;20042;-77
2022/04/24 02:34:26;;;;;;;13.02;11.63;;;7.90;99.90;;;;;;5114412;27;20055;-78
2022/04/24 02:36:52;;;;;;;11.60;10.55;;;7.90;99.90;;;;;;5080472;27;20039;-77
2022/04/24 02:39:19;;;;;;;12.10;10.75;;;7.80;99.90;;;;;;5099418;27;20050;-77
2022/04/24 02:41:45;;;;;;;12.07;10.90;;;7.80;99.90;;;;;;5110674;27;20043;-76
2022/04/24 02:44:11;;;;;;;12.25;11.15;;;7.80;99.90;;;;;;5111749;27;20508;-77
2022/04/24 02:46:37;;;;;;;11.85;10.65;;;7.80;99.90;;;;;;5102736;27;20086;-78
2022/04/24 02:49:03;;;;;;;12.38;11.18;;;7.80;99.90;;;;;;5077622;27;20050;-74
2022/04/24 02:51:29;;;;;;;13.63;11.15;;;7.80;99.90;;;;;;5076651;27;20073;-77
2022/04/24 02:53:54;;;;;;;12.25;10.70;;;7.70;99.90;;;;;;5077637;27;20039;-77
2022/04/24 02:56:20;;;;;;;11.90;10.80;;;7.70;99.90;;;;;;5101004;27;20107;-77
2022/04/24 02:58:46;;;;;;;11.50;10.38;;;7.70;99.90;;;;;;5147076;27;20168;-77
2022/04/24 03:01:12;;;;;;;11.48;10.30;;;7.70;99.90;;;;;;5110521;27;20292;-74
2022/04/24 03:03:38;;;;;;;13.20;9.70;;;7.70;99.90;;;;;;5124012;27;20058;-78
2022/04/24 03:06:04;;;;;;;11.20;9.82;;;7.70;99.90;;;;;;5101697;27;20050;-77
2022/04/24 03:08:31;;;;;;;11.68;10.57;;;7.70;99.90;;;;;;5109750;27;20540;-77
2022/04/24 03:10:57;;;;;;;11.75;10.55;;;7.80;99.90;;;;;;5123787;27;20054;-76
2022/04/24 03:13:23;;;;;;;12.30;11.05;;;7.80;99.90;;;;;;5130455;27;20065;-77
2022/04/24 03:15:48;;;;;;;11.57;10.48;;;7.80;99.90;;;;;;5095822;27;20082;-75
2022/04/24 03:18:14;;;;;;;11.35;10.15;;;7.80;99.90;;;;;;5078157;27;20127;-75
2022/04/24 03:20:40;;;;;;;10.90;9.80;;;7.80;99.90;;;;;;5146441;27;20051;-77
2022/04/24 03:23:06;;;;;;;12.57;11.27;;;7.80;99.90;;;;;;5129801;27;20046;-77
2022/04/24 03:25:31;;;;;;;11.07;9.98;;;7.70;99.90;;;;;;5128982;27;20047;-78
2022/04/24 03:27:57;;;;;;;11.68;10.43;;;7.70;99.90;;;;;;5111086;27;20042;-77
2022/04/24 03:30:23;;;;;;;12.05;10.85;;;7.70;99.90;;;;;;5109451;27;20405;-76
2022/04/24 03:32:49;;;;;;;11.30;10.20;;;7.60;99.90;;;;;;5129227;27;20489;-77
2022/04/24 03:35:15;;;;;;;11.48;10.32;;;7.60;99.90;;;;;;5111480;27;20062;-77
2022/04/24 03:37:42;;;;;;;11.77;10.45;;;7.60;99.90;;;;;;5110375;27;20051;-77
2022/04/24 03:40:08;;;;;;;12.23;11.00;;;7.60;99.90;;;;;;5112452;27;20481;-76
2022/04/24 03:42:35;;;;;;;11.38;10.38;;;7.60;99.90;;;;;;5129845;27;20054;-78
2022/04/24 03:45:01;;;;;;;13.13;11.15;;;7.50;99.90;;;;;;5111899;27;20045;-75
2022/04/24 03:47:28;;;;;;;12.43;11.23;;;7.50;99.90;;;;;;5110487;27;20055;-78
2022/04/24 03:49:54;;;;;;;12.73;11.43;;;7.40;99.90;;;;;;5129112;27;20056;-78
2022/04/24 03:52:20;;;;;;;13.20;11.90;;;7.40;99.90;;;;;;5111637;27;20087;-76
2022/04/24 03:54:46;;;;;;;12.05;10.95;;;7.40;99.90;;;;;;5147327;27;20061;-77
2022/04/24 03:57:12;;;;;;;12.38;11.18;;;7.40;99.90;;;;;;5112241;27;20473;-76
2022/04/24 03:59:38;;;;;;;12.35;11.25;;;7.30;99.90;;;;;;5146741;27;20047;-78
2022/04/24 04:02:04;;;;;;;12.93;11.73;;;7.30;99.90;;;;;;5108130;27;20385;-76
2022/04/24 04:04:30;;;;;;;12.45;11.25;;;7.30;99.90;;;;;;5109312;27;20201;-78
2022/04/24 04:06:56;;;;;;;12.68;11.40;;;7.30;99.90;;;;;;5075705;27;20039;-78
2022/04/24 04:09:23;;;;;;;12.38;11.18;;;7.20;99.90;;;;;;5111636;27;20051;-77
2022/04/24 04:11:49;;;;;;;13.23;11.82;;;7.20;99.90;;;;;;5129652;27;20043;-77
2022/04/24 04:14:14;;;;;;;13.18;11.98;;;7.10;99.90;;;;;;5109268;27;20481;-76
2022/04/24 04:16:40;;;;;;;14.50;12.23;;;7.10;99.90;;;;;;5091326;27;20055;-78
2022/04/24 04:19:06;;;;;;;13.55;12.25;;;7.10;99.90;;;;;;5058833;27;20439;-77
2022/04/24 04:21:35;;;;;;;13.02;11.82;;;7.10;99.90;;;;;;5070993;28;20055;-77
2022/04/24 04:24:01;;;;;;;13.15;11.80;;;7.00;99.90;;;;;;5071620;28;20581;-76
2022/04/24 04:26:27;;;;;;;13.30;12.02;;;7.00;99.90;;;;;;5071971;28;20051;-78
2022/04/24 04:28:53;;;;;;;13.23;11.82;;;7.00;99.90;;;;;;5107461;28;20112;-77
2022/04/24 04:31:18;;;;;;;12.88;11.68;;;7.00;99.90;;;;;;5055756;28;20636;-78
2022/04/24 04:33:44;;;;;;;12.63;11.32;;;7.00;99.90;;;;;;5107190;28;20039;-78
2022/04/24 04:36:10;;;;;;;12.55;11.35;;;7.00;99.90;;;;;;5072702;28;20051;-77
2022/04/24 04:38:36;;;;;;;12.25;11.05;;;7.00;99.90;;;;;;5086958;27;20051;-77
2022/04/24 04:41:03;;;;;;;13.50;12.20;;;7.00;99.90;;;;;;5126602;27;20112;-77
2022/04/24 04:43:29;;;;;;;14.05;12.48;;;7.10;99.90;;;;;;5092173;27;20455;-79
2022/04/24 04:45:55;;;;;;;12.38;11.27;;;7.10;99.90;;;;;;5088704;28;20047;-77
2022/04/24 04:48:21;;;;;;;12.32;11.13;;;7.10;99.90;;;;;;5105199;28;20052;-77
2022/04/24 04:50:47;;;;;;;12.93;11.48;;;7.10;99.90;;;;;;5071408;28;20058;-78
2022/04/24 04:53:12;;;;;;;13.13;11.77;;;7.10;99.90;;;;;;5105381;28;20137;-75
2022/04/24 04:55:38;;;;;;;12.82;11.50;;;7.10;99.90;;;;;;5087833;28;20158;-78
2022/04/24 04:58:04;;;;;;;13.27;11.98;;;7.10;99.90;;;;;;5089137;28;20097;-78
2022/04/24 05:00:30;;;;;;;12.77;11.48;;;7.10;99.90;;;;;;5070701;28;20079;-78
2022/04/24 05:02:56;;;;;;;12.80;11.50;;;7.10;99.90;;;;;;5088072;28;20096;-78
2022/04/24 05:05:22;;;;;;;13.95;11.80;;;7.20;99.90;;;;;;5114253;27;20071;-78
2022/04/24 05:07:47;;;;;;;13.00;11.75;;;7.30;99.90;;;;;;5054113;28;20510;-77
2022/04/24 05:10:13;;;;;;;12.60;11.23;;;7.30;99.90;;;;;;5115196;27;20065;-78
2022/04/24 05:12:39;;;;;;;11.85;10.65;;;7.40;99.90;;;;;;5090763;27;20065;-78
2022/04/24 05:15:12;;;;;;;12.77;11.48;;;7.40;99.90;;;;;;5087624;28;20043;-78
2022/04/24 05:17:39;;;;;;;13.05;11.60;;;7.40;99.90;;;;;;5104545;28;20063;-76
2022/04/24 05:20:06;;;;;;;12.48;11.23;;;7.40;99.90;;;;;;5104311;28;20087;-76
2022/04/24 05:22:31;;;;;;;12.05;10.85;;;7.40;99.90;;;;;;5070926;28;20066;-78
2022/04/24 05:24:57;;;;;;;13.75;10.98;;;7.50;99.90;;;;;;5087265;28;20039;-77
2022/04/24 05:27:23;;;;;;;11.45;10.35;;;7.40;99.90;;;;;;5104745;28;20120;-76
2022/04/24 05:29:49;;;;;;;14.32;10.93;;;7.50;99.90;;;;;;5087606;28;20040;-78
2022/04/24 05:32:15;;;;;;;12.40;11.20;;;7.50;99.90;;;;;;5106352;28;20039;-77
2022/04/24 05:34:41;;;;;;;12.05;10.75;;;7.50;99.90;;;;;;5069842;28;20562;-77
2022/04/24 05:37:08;;;;;;;11.77;10.57;;;7.50;99.90;;;;;;5070890;28;20043;-77
2022/04/24 05:39:34;;;;;;;11.75;10.55;;;7.60;99.90;;;;;;5087604;28;20508;-76
2022/04/24 05:42:00;;;;;;;11.75;10.60;;;7.60;99.90;;;;;;5070622;28;20047;-78
2022/04/24 05:44:26;;;;;;;11.65;10.55;;;7.60;99.90;;;;;;5070905;28;20090;-78
2022/04/24 05:46:52;;;;;;;11.90;10.60;;;7.70;99.90;;;;;;5097701;28;20051;-76
2022/04/24 05:49:18;;;;;;;12.20;11.00;;;7.70;99.90;;;;;;5087779;28;20051;-77
2022/04/24 05:51:44;;;;;;;11.77;10.57;;;7.80;99.90;;;;;;5087030;28;20047;-74
2022/04/24 05:54:10;;;;;;;11.38;10.13;;;7.80;99.90;;;;;;5087446;28;20397;-79
2022/04/24 05:56:38;;;;;;;11.23;10.13;;;7.90;99.90;;;;;;5087006;28;20599;-79
2022/04/24 05:59:04;;;;;;;11.52;10.32;;;7.90;99.90;;;;;;5087838;28;20669;-78
2022/04/24 06:01:30;;;;;;;11.35;10.15;;;8.00;99.90;;;;;;5104072;28;20677;-79
2022/04/24 06:03:56;;;;;;;11.95;10.00;;;8.00;99.90;;;;;;5088426;28;20047;-77
2022/04/24 06:06:22;;;;;;;12.38;10.93;;;8.00;99.90;;;;;;5108601;28;20107;-78
2022/04/24 06:08:48;;;;;;;12.02;10.65;;;8.10;99.90;;;;;;5107179;28;20655;-75
2022/04/24 06:11:13;;;;;;;12.77;11.48;;;8.10;99.90;;;;;;5119468;28;20047;-77
2022/04/24 06:13:40;;;;;;;12.30;10.85;;;8.10;99.90;;;;;;5086212;28;20166;-76
2022/04/24 06:16:06;;;;;;;16.60;10.95;;;8.20;99.90;;;;;;5066447;28;20090;-76
2022/04/24 06:18:35;;;;;;;12.18;10.95;;;8.20;99.90;;;;;;5093002;28;20509;-76
2022/04/24 06:21:01;;;;;;;12.70;11.37;;;8.20;99.90;;;;;;5094385;28;20409;-76
2022/04/24 06:23:28;;;;;;;11.80;10.60;;;8.30;99.90;;;;;;5085659;28;20047;-75
2022/04/24 06:25:55;;;;;;;11.63;10.50;;;8.40;99.90;;;;;;5066582;28;20094;-77
2022/04/24 06:28:21;;;;;;;12.50;10.65;;;8.40;99.90;;;;;;5068813;28;20043;-76
2022/04/24 06:30:47;;;;;;;12.50;10.70;;;8.50;99.90;;;;;;5082431;28;20108;-78
2022/04/24 06:33:14;;;;;;;12.77;11.48;;;8.50;99.90;;;;;;5103181;28;20055;-78
2022/04/24 06:35:41;;;;;;;11.98;10.65;;;8.60;99.90;;;;;;5101973;28;20055;-77
2022/04/24 06:38:07;;;;;;;12.02;10.63;;;8.60;99.90;;;;;;5104267;28;20436;-75
2022/04/24 06:40:33;;;;;;;11.35;10.15;;;8.60;99.90;;;;;;5066157;28;20047;-76
2022/04/24 06:43:04;;;;;;;12.20;10.90;;;8.70;99.90;;;;;;5101658;28;20051;-76
2022/04/24 06:45:32;;;;;;;14.98;10.88;;;8.70;99.90;;;;;;5084879;28;20044;-79
2022/04/24 06:48:01;;;;;;;15.35;11.80;;;8.80;99.90;;;;;;5103984;28;20056;-79
2022/04/24 06:50:28;;;;;;;11.60;10.43;;;8.90;99.90;;;;;;5107377;28;20109;-82
2022/04/24 06:53:04;;;;;;;12.57;10.77;;;9.10;99.90;;;;;;5103012;28;20046;-81
2022/04/24 06:55:33;;;;;;;11.90;10.15;;;9.20;99.90;;;;;;5102869;28;20054;-76
2022/04/24 06:58:00;;;;;;;15.48;11.35;;;9.30;99.90;;;;;;5105861;28;20558;-75
2022/04/24 07:00:28;;;;;;;11.77;10.57;;;9.40;99.90;;;;;;5103028;28;20039;-79
2022/04/24 07:02:54;;;;;;;11.02;9.93;;;9.50;99.90;;;;;;5103263;28;20052;-77
2022/04/24 07:05:22;;;;;;;13.77;10.50;;;9.60;99.90;;;;;;5104655;28;20176;-81
2022/04/24 07:07:48;;;;;;;10.95;9.85;;;9.70;99.90;;;;;;5089627;28;20489;-81
2022/04/24 07:10:14;;;;;;;11.57;9.27;;;9.70;99.90;;;;;;5104881;28;20382;-79
2022/04/24 07:12:47;;;;;;;11.02;9.57;;;9.90;99.90;;;;;;5105449;28;20074;-78
2022/04/24 07:15:13;;;;;;;10.85;9.75;;;9.90;99.90;;;;;;5105507;28;20086;-78
2022/04/24 07:17:41;;;;;;;11.20;9.32;;;9.90;99.90;;;;;;5086085;28;20062;-79
2022/04/24 07:20:09;;;;;;;9.98;8.80;;;10.10;99.90;;;;;;5089304;28;20047;-77
2022/04/24 07:22:44;;;;;;;9.77;8.15;;;10.20;99.90;;;;;;5112546;27;20055;-76
2022/04/24 07:25:14;;;;;;;10.77;8.13;;;10.40;99.90;;;;;;5087795;28;20561;-77
2022/04/24 07:27:40;;;;;;;10.50;7.70;;;10.40;99.90;;;;;;5107383;27;20047;-76
2022/04/24 07:30:16;;;;;;;8.23;7.10;;;10.50;99.90;;;;;;5103534;27;20386;-77
2022/04/24 07:32:44;;;;;;;9.38;6.95;;;10.60;99.90;;;;;;5105544;27;20510;-75
2022/04/24 07:35:16;;;;;;;11.60;6.97;;;10.60;99.90;;;;;;5124967;27;20264;-72
2022/04/24 07:37:42;;;;;;;7.35;6.00;;;10.70;99.90;;;;;;5109513;27;20495;-72
2022/04/24 07:40:10;;;;;;;7.80;5.95;;;10.80;99.90;;;;;;5094995;27;20051;-71
2022/04/24 07:42:55;;;;;;;8.15;5.68;;;10.90;99.90;;;;;;5123695;27;20504;-73
2022/04/24 07:45:44;;;;;;;8.10;5.63;;;11.10;99.90;;;;;;5107136;27;20180;-73
2022/04/24 07:48:12;;;;;;;8.95;6.13;;;11.20;99.90;;;;;;5125712;27;20070;-73
2022/04/24 07:50:42;;;;;;;8.98;6.55;;;11.20;99.90;;;;;;5086854;28;20531;-73
2022/04/24 07:53:08;;;;;;;8.50;5.90;;;11.30;99.90;;;;;;5083912;28;20636;-73
2022/04/24 07:55:34;;;;;;;8.90;5.85;;;11.40;99.90;;;;;;5101503;28;20044;-72
2022/04/24 07:58:01;;;;;;;8.45;5.18;;;11.50;99.90;;;;;;5084200;28;20032;-73
2022/04/24 08:00:28;;;;;;;6.07;4.70;;;11.60;99.90;;;;;;5082207;28;20052;-73
2022/04/24 08:03:05;;;;;;;6.03;4.30;;;11.60;99.90;;;;;;5106135;27;20448;-72
2022/04/24 08:05:34;;;;;;;6.55;4.40;;;11.80;99.90;;;;;;5080419;28;20130;-72
2022/04/24 08:08:08;;;;;;;6.78;4.63;;;11.80;99.90;;;;;;5079262;28;20582;-73
2022/04/24 08:10:40;;;;;;;6.18;3.83;;;11.90;99.90;;;;;;5096881;28;20568;-74
2022/04/24 08:13:06;;;;;;;5.80;3.90;;;12.00;99.90;;;;;;5100656;28;20036;-71
2022/04/24 08:15:35;;;;;;;5.82;3.88;;;12.10;99.90;;;;;;5097957;28;20554;-73
2022/04/24 08:18:03;;;;;;;6.80;4.20;;;12.20;99.10;;;;;;5099162;27;20490;-73
2022/04/24 08:20:29;;;;;;;8.07;3.88;;;12.30;99.80;;;;;;5095245;27;20043;-73
2022/04/24 08:22:57;;;;;;;13.70;4.55;;;12.40;98.80;;;;;;5139592;27;20127;-72
2022/04/24 08:25:25;;;;;;;4.75;3.35;;;12.50;98.20;;;;;;5123648;27;20090;-75
2022/04/24 08:27:52;;;;;;;4.47;3.10;;;12.70;97.80;;;;;;5120191;27;20047;-73
2022/04/24 08:30:20;;;;;;;5.25;3.35;;;12.80;97.70;;;;;;5117437;27;20050;-73
2022/04/24 08:32:46;;;;;;;5.47;3.20;;;13.00;95.60;;;;;;5087470;27;20058;-74
2022/04/24 08:35:15;;;;;;;5.10;2.90;;;13.10;94.30;;;;;;5104945;27;20054;-73
2022/04/24 08:37:42;;;;;;;5.38;3.13;;;13.30;93.70;;;;;;5103999;27;20410;-74
2022/04/24 08:40:10;;;;;;;7.45;3.28;;;13.50;94.30;;;;;;5142036;27;20475;-71
2022/04/24 08:42:36;;;;;;;6.28;2.80;;;13.70;90.60;;;;;;5089995;27;20623;-74
2022/04/24 08:45:04;;;;;;;5.53;2.88;;;13.90;90.30;;;;;;5127491;27;20042;-73
2022/04/24 08:47:30;;;;;;;4.30;2.90;;;14.00;87.90;;;;;;5127541;27;20115;-74
2022/04/24 08:49:58;;;;;;;5.03;2.90;;;14.10;88.80;;;;;;5127291;27;20406;-72
2022/04/24 08:52:25;;;;;;;5.05;3.03;;;14.20;87.00;;;;;;5121144;27;20042;-74
2022/04/24 08:54:52;;;;;;;4.97;3.50;;;14.30;84.70;;;;;;5074513;27;20047;-72
2022/04/24 08:57:19;;;;;;;5.45;3.20;;;14.30;85.70;;;;;;5109792;27;20204;-73
2022/04/24 08:59:48;;;;;;;6.10;3.10;;;14.40;82.10;;;;;;5107604;27;20184;-74
2022/04/24 09:02:14;;;;;;;4.82;3.10;;;14.40;80.20;;;;;;5109049;27;20193;-74
2022/04/24 09:04:40;;;;;;;4.65;2.90;;;14.30;80.80;;;;;;5092232;27;20046;-73
2022/04/24 09:07:08;;;;;;;7.15;3.22;;;14.40;77.50;;;;;;5109605;27;20042;-74
2022/04/24 09:09:53;;;;;;;6.97;3.25;;;14.40;78.40;;;;;;5124879;27;20061;-73
2022/04/24 09:12:24;;;;;;;5.03;3.13;;;14.50;79.30;;;;;;5108819;27;20069;-72
2022/04/24 09:14:54;;;;;;;5.35;3.00;;;14.60;78.60;;;;;;5145303;27;20454;-73
2022/04/24 09:17:20;;;;;;;5.43;2.95;;;14.60;77.70;;;;;;5124461;27;20050;-71
2022/04/24 09:19:47;;;;;;;6.55;3.00;;;14.80;75.70;;;;;;5124805;27;20050;-73
2022/04/24 09:22:14;;;;;;;5.45;3.33;;;14.90;77.00;;;;;;5127489;27;20070;-73
2022/04/24 09:24:49;;;;;;;5.55;3.25;;;14.90;75.20;;;;;;5109831;27;20452;-71
2022/04/24 09:27:27;;;;;;;6.03;3.42;;;15.00;73.20;;;;;;5125529;27;20047;-71
2022/04/24 09:29:57;;;;;;;5.22;3.30;;;15.10;72.50;;;;;;5124026;27;20052;-71
2022/04/24 09:32:25;;;;;;;6.68;3.33;;;15.10;75.20;;;;;;5105826;27;20450;-73
2022/04/24 09:34:52;;;;;;;5.22;3.10;;;15.10;70.20;;;;;;5089265;27;20110;-72
2022/04/24 09:37:19;;;;;;;6.05;3.30;;;15.00;72.10;;;;;;5109651;27;20125;-72
2022/04/24 09:39:45;;;;;;;5.85;3.15;;;15.20;71.60;;;;;;5109198;27;20058;-74
2022/04/24 09:42:12;;;;;;;4.63;3.38;;;15.30;70.40;;;;;;5108905;27;20051;-73
2022/04/24 09:44:46;;;;;;;6.00;3.03;;;15.30;71.30;;;;;;5108318;27;20093;-75
2022/04/24 09:47:13;;;;;;;5.82;3.70;;;15.40;73.40;;;;;;5127255;27;20111;-72
2022/04/24 09:49:42;;;;;;;4.78;3.25;;;15.50;67.60;;;;;;5109706;27;20677;-71
2022/04/24 09:52:14;;;;;;;7.22;3.70;;;15.60;67.10;;;;;;5109757;27;20046;-73
2022/04/24 09:54:45;;;;;;;6.55;3.60;;;15.50;68.20;;;;;;5140954;27;20046;-75
2022/04/24 09:57:13;;;;;;;6.80;3.17;;;15.60;73.10;;;;;;5126655;27;20051;-73
2022/04/24 09:59:41;;;;;;;7.45;3.60;;;15.70;71.30;;;;;;5106192;27;20043;-75
2022/04/24 10:02:08;;;;;;;4.38;3.17;;;15.90;69.20;;;;;;5126731;27;20039;-74
2022/04/24 10:04:38;;;;;;;5.03;3.10;;;16.00;67.20;;;;;;5126640;27;20050;-72
2022/04/24 10:07:09;;;;;;;5.63;3.13;;;16.10;65.40;;;;;;5144884;27;20547;-74
2022/04/24 10:09:40;;;;;;;7.75;3.22;;;16.00;63.00;;;;;;5107199;27;20078;-73
2022/04/24 10:12:14;;;;;;;6.78;2.95;;;16.00;63.30;;;;;;5126046;27;20039;-74
2022/04/24 10:14:49;;;;;;;5.18;3.00;;;16.00;63.60;;;;;;5108655;27;20095;-72
2022/04/24 10:17:51;;;;;;;7.40;3.03;;;16.10;62.10;;;;;;5140711;27;20633;-71
2022/04/24 10:20:20;;;;;;;5.75;2.88;;;16.10;60.90;;;;;;5109754;27;20086;-72
2022/04/24 10:22:49;;;;;;;4.82;3.50;;;16.10;60.20;;;;;;5112355;27;20066;-73
2022/04/24 10:25:16;;;;;;;4.72;2.72;;;16.00;58.70;;;;;;5129785;27;20042;-71
2022/04/24 10:27:44;;;;;;;5.15;2.45;;;15.90;59.60;;;;;;5109346;27;20550;-72
2022/04/24 10:30:34;;;;;;;4.28;2.28;;;16.10;58.70;;;;;;5129887;27;20049;-72
2022/04/24 10:33:22;;;;;;;6.07;3.00;;;16.20;59.00;;;;;;5129355;27;20054;-72
2022/04/24 10:35:54;;;;;;;4.40;2.50;;;16.30;59.30;;;;;;5148331;27;20450;-75
2022/04/24 10:38:23;;;;;;;5.32;2.58;;;16.30;59.70;;;;;;5112495;27;20463;-73
2022/04/24 10:41:05;;;;;;;4.43;2.63;;;16.50;56.60;;;;;;5112846;27;20050;-74
2022/04/24 10:43:38;;;;;;;4.45;2.50;;;16.40;56.30;;;;;;5111665;27;20454;-73
2022/04/24 10:46:26;;;;;;;4.85;2.40;;;16.40;55.70;;;;;;5112348;27;20516;-73
2022/04/24 10:48:53;;;;;;;6.65;2.65;;;16.50;55.70;;;;;;5110743;27;20051;-72
2022/04/24 10:51:30;;;;;;;5.03;2.63;;;16.60;55.40;;;;;;5129932;27;20051;-72
2022/04/24 10:54:08;;;;;;;5.95;2.15;;;16.50;55.00;;;;;;5110924;27;20050;-73
2022/04/24 10:56:36;;;;;;;3.90;2.22;;;16.50;55.50;;;;;;5147038;27;20051;-73
2022/04/24 10:59:42;;;;;;;3.65;2.30;;;16.50;54.70;;;;;;5110652;27;20117;-72
2022/04/24 11:02:09;;;;;;;4.13;2.60;;;16.60;52.60;;;;;;5145035;27;20074;-74
2022/04/24 11:04:40;;;;;;;7.55;2.92;;;16.70;53.10;;;;;;5129161;27;20760;-73
2022/04/24 11:07:06;;;;;;;5.05;2.85;;;16.60;55.20;;;;;;5145160;27;20034;-73
2022/04/24 11:09:36;;;;;;;3.97;2.22;;;16.60;57.50;;;;;;5111522;27;20096;-73
2022/04/24 11:12:06;;;;;;;5.72;2.83;;;16.70;53.50;;;;;;5110201;27;20088;-75
2022/04/24 11:14:37;;;;;;;4.45;2.63;;;16.90;55.80;;;;;;5107882;27;20050;-73
2022/04/24 11:17:05;;;;;;;4.75;2.40;;;16.80;55.30;;;;;;5086833;27;20046;-73
2022/04/24 11:19:34;;;;;;;3.40;2.40;;;16.50;56.20;;;;;;5121203;27;20086;-75
2022/04/24 11:22:03;;;;;;;4.90;2.92;;;16.40;58.00;;;;;;5102622;27;20053;-73
2022/04/24 11:24:31;;;;;;;4.93;2.97;;;16.40;56.50;;;;;;5123667;27;20046;-74
2022/04/24 11:27:01;;;;;;;4.22;3.08;;;16.10;57.50;;;;;;5121243;27;20073;-73
2022/04/24 11:29:26;;;;;;;4.78;2.90;;;15.80;58.60;;;;;;5122410;27;20081;-74
2022/04/24 11:31:54;;;;;;;5.35;3.03;;;15.80;59.20;;;;;;5126970;27;20038;-72
2022/04/24 11:34:21;;;;;;;5.30;3.00;;;15.90;58.90;;;;;;5122452;27;20532;-74
2022/04/24 11:36:49;;;;;;;8.70;2.70;;;16.00;58.50;;;;;;5108787;27;20204;-71
2022/04/24 11:39:17;;;;;;;6.20;3.75;;;15.90;58.80;;;;;;5108207;27;20094;-74
2022/04/24 11:41:46;;;;;;;4.65;2.75;;;15.70;59.00;;;;;;5125021;27;20502;-74
2022/04/24 11:52:39;;;;;;;4.70;2.25;;;16.10;57.30;;;;;;5108077;27;20051;-71
2022/04/24 11:55:07;;;;;;;3.83;2.10;;;16.00;57.50;;;;;;5142063;27;20041;-72
2022/04/24 11:57:33;;;;;;;3.92;2.25;;;15.90;58.10;;;;;;5117837;27;20049;-73
2022/04/24 11:59:59;;;;;;;6.90;2.50;;;15.90;56.70;;;;;;5124663;27;20436;-72
2022/04/24 12:02:27;;;;;;;4.38;2.40;;;16.10;58.10;;;;;;5105585;27;20383;-75
2022/04/24 12:04:54;;;;;;;3.67;2.30;;;16.30;57.90;;;;;;5092098;27;20174;-75
2022/04/24 12:07:31;;;;;;;4.45;1.95;;;16.50;56.20;;;;;;5121404;27;20511;-73
2022/04/24 12:10:07;;;;;;;3.63;2.00;;;16.60;54.90;;;;;;5111363;27;20083;-73
2022/04/24 12:12:47;;;;;;;4.15;2.10;;;16.60;55.00;;;;;;5108855;27;20455;-73
2022/04/24 12:15:24;;;;;;;4.68;2.40;;;16.60;53.20;;;;;;5109359;27;20051;-71
2022/04/24 12:17:50;;;;;;;3.47;1.98;;;16.40;53.30;;;;;;5091769;27;20511;-74
2022/04/24 12:20:16;;;;;;;4.00;2.40;;;16.10;55.10;;;;;;5110457;27;20121;-75
2022/04/24 12:22:42;;;;;;;5.95;2.78;;;16.10;56.10;;;;;;5124942;27;20476;-73
2022/04/24 12:25:18;;;;;;;4.47;2.25;;;16.10;58.00;;;;;;5109070;27;20035;-73
2022/04/24 12:27:55;;;;;;;6.70;2.70;;;16.40;57.50;;;;;;5124854;27;20137;-72
2022/04/24 12:30:22;;;;;;;5.28;2.97;;;16.60;57.60;;;;;;5120378;27;20045;-74
2022/04/24 12:32:48;;;;;;;7.15;2.53;;;16.80;56.30;;;;;;5120921;27;20297;-74
2022/04/24 12:35:31;;;;;;;4.68;2.38;;;16.80;56.20;;;;;;5127062;27;20042;-73
2022/04/24 12:37:58;;;;;;;4.38;2.95;;;16.90;56.50;;;;;;5110019;27;20058;-74
2022/04/24 12:40:24;;;;;;;6.15;2.92;;;16.90;55.90;;;;;;5109958;27;20051;-73
2022/04/24 12:42:54;;;;;;;4.90;2.80;;;16.80;56.20;;;;;;5090130;27;20047;-73
2022/04/24 12:45:20;;;;;;;6.00;3.05;;;16.70;57.30;;;;;;5091403;27;20646;-76
2022/04/24 12:47:47;;;;;;;5.75;3.00;;;16.50;59.40;;;;;;5126603;27;20047;-73
2022/04/24 12:50:14;;;;;;;4.22;2.55;;;16.60;56.00;;;;;;5127211;27;20046;-74
2022/04/24 12:52:40;;;;;;;4.80;2.60;;;16.50;55.50;;;;;;5126840;27;20046;-76
2022/04/24 12:55:07;;;;;;;4.70;2.67;;;16.60;57.60;;;;;;5106139;27;20075;-76